Ocean Clipper — CY7666 — position and weather

sailwx.info

Track history (hours):
 
Tides and Currents Weather Stations Pressure Air Temp Water Temp Dewpoint Dewpoint Depression Visibility Wind Speed Wind Dir Waves Ship Positions

Ocean Clipper

Last reported at 2018-May-21 14:08 UTC. Time now 2018-May-21 14:50 UTC.
Position N 51°23' W 127°52'.

Length 27 m; draft 4.6 m.

Type: Tow > 200 m length. MMSI: 316005594.

Date/timePositionNaut miles runAvg speedWind from/ knotsBaromVisibWave heightAir tempDewpointWater temp
2018-May-21 14:08N 51°23' W 127°52'1 5.6
2018-May-21 13:59N 51°23' W 127°52'3 5.9
2018-May-21 13:27N 51°27' W 127°52'2 5.6
2018-May-21 13:00N 51°29' W 127°52'3 5.1
2018-May-21 12:30N 51°32' W 127°53'2 5.1
2018-May-21 12:00N 51°34' W 127°53'3 5.2
2018-May-21 11:30N 51°37' W 127°54'2 4.8
2018-May-21 11:00N 51°39' W 127°55'3 5.1
2018-May-21 10:30N 51°41' W 127°55'3 5.7
2018-May-21 10:00N 51°44' W 127°55'3 5.9
2018-May-21 09:30N 51°47' W 127°56'3 5.7
2018-May-21 09:00N 51°50' W 127°57'3 5.9
2018-May-21 08:30N 51°53' W 127°57'3 6.2
2018-May-21 08:00N 51°56' W 127°56'3 6.3
2018-May-21 07:30N 51°59' W 127°56'3 6.3
2018-May-21 07:00N 52°02' W 127°55'3 6.3
2018-May-21 06:30N 52°05' W 127°54'3 6.5
2018-May-21 06:00N 52°09' W 127°53'3 6.3
2018-May-21 05:30N 52°11' W 127°51'3 6.2
2018-May-21 05:00N 52°14' W 127°48'3 6.1
2018-May-21 04:30N 52°16' W 127°43'3 6.4
2018-May-21 03:59N 52°17' W 127°38'10 0.2
2018-May-19 08:36N 52°14' W 127°22'3 6.1
2018-May-19 08:06N 52°13' W 127°26'1 6.2
2018-May-19 08:00N 52°12' W 127°27'3 6.1
2018-May-19 07:30N 52°11' W 127°31'3 5.5
2018-May-19 06:59N 52°08' W 127°35'3 5.6
2018-May-19 06:30N 52°07' W 127°38'1 1.8
2018-May-19 06:00N 52°07' W 127°39'0 0.9
2018-May-19 05:30N 52°07' W 127°38'2 3.2
2018-May-19 05:00N 52°05' W 127°39'2 4.5
2018-May-19 04:30N 52°03' W 127°40'3 5.2
2018-May-19 04:00N 52°00' W 127°41'3 5.3
2018-May-19 03:30N 51°58' W 127°42'2 4.5
2018-May-19 03:00N 51°57' W 127°46'2 4.3
2018-May-19 02:30N 51°56' W 127°49'3 6.5
2018-May-19 02:00N 51°54' W 127°53'3 6.2
2018-May-19 01:30N 51°52' W 127°55'3 6.4
2018-May-19 01:00N 51°48' W 127°55'4 6.8
2018-May-19 00:30N 51°45' W 127°55'3 6.3
2018-May-19 00:00N 51°42' W 127°55'3 6.0
2018-May-18 23:30N 51°39' W 127°54'3 6.4
2018-May-18 23:00N 51°36' W 127°53'3 6.9
2018-May-18 22:30N 51°32' W 127°52'4 7.0
2018-May-18 22:00N 51°29' W 127°51'4 7.1
2018-May-18 21:28N 51°25' W 127°51'3 7.0
2018-May-18 21:00N 51°22' W 127°53'4 6.8
2018-May-18 20:27N 51°18' W 127°53'3 6.6
2018-May-18 19:59N 51°15' W 127°52'3 6.5
2018-May-18 19:28N 51°12' W 127°51'4 6.2
2018-May-18 18:48N 51°08' W 127°48'2 6.7
2018-May-18 18:29N 51°07' W 127°46'4 7.5
2018-May-18 18:01N 51°04' W 127°41'4 7.6
2018-May-18 17:30N 51°02' W 127°37'4 8.2
2018-May-18 17:00N 50°59' W 127°32'4 8.4
2018-May-18 16:30N 50°56' W 127°27'4 8.4
2018-May-18 16:00N 50°54' W 127°22'4 8.0
2018-May-18 15:30N 50°52' W 127°16'4 7.9
2018-May-18 14:59N 50°49' W 127°11'4 8.0
2018-May-18 14:30N 50°47' W 127°06'4 7.8
2018-May-18 13:58N 50°45' W 127°01'4 7.8
2018-May-18 13:30N 50°43' W 126°56'6 7.1
2018-May-18 12:37N 50°39' W 126°48'3 7.0
2018-May-18 12:11N 50°37' W 126°45'1 7.2
2018-May-18 11:59N 50°36' W 126°43'3 5.5
2018-May-18 11:28N 50°33' W 126°41'4 7.2
2018-May-18 10:56N 50°31' W 126°36'3 7.2
2018-May-18 10:29N 50°30' W 126°31'4 7.2
2018-May-18 09:59N 50°30' W 126°25'35 7.7
2018-May-18 05:26N 50°21' W 125°32'4 8.5
2018-May-18 04:55N 50°20' W 125°26'4 8.6
2018-May-18 04:30N 50°16' W 125°24'4 8.1
2018-May-18 04:00N 50°12' W 125°22'4 8.4
2018-May-18 03:30N 50°08' W 125°21'3 6.2
2018-May-18 03:01N 50°06' W 125°19'0 0.2
2018-May-18 02:30N 50°06' W 125°19'0 0.0
2018-May-18 02:01N 50°06' W 125°19'0 0.0
2018-May-18 01:30N 50°06' W 125°19'0 0.0
2018-May-18 01:00N 50°06' W 125°19'0 0.0
2018-May-18 00:31N 50°06' W 125°19'0 0.0
2018-May-17 23:59N 50°06' W 125°19'0 0.0
2018-May-17 23:30N 50°06' W 125°19'0 0.0
2018-May-17 23:00N 50°06' W 125°19'0 0.0
2018-May-17 22:29N 50°06' W 125°19'0 0.0
2018-May-17 22:00N 50°06' W 125°19'0 0.0
2018-May-17 21:30N 50°06' W 125°19'0 0.0
2018-May-17 21:00N 50°06' W 125°19'0 0.0
2018-May-17 20:30N 50°06' W 125°19'0 0.0
2018-May-17 20:01N 50°06' W 125°19'0 0.0
2018-May-17 19:31N 50°06' W 125°19'0 0.0
2018-May-17 19:00N 50°06' W 125°19'0 0.0
2018-May-17 18:30N 50°06' W 125°19'0 0.7
2018-May-17 18:01N 50°06' W 125°19'1 1.2
2018-May-17 17:30N 50°05' W 125°18'1 2.5
2018-May-17 17:00N 50°05' W 125°16'4 8.8
2018-May-17 16:31N 50°01' W 125°13'3 6.0
2018-May-17 16:00N 49°58' W 125°11'3 5.0
2018-May-17 15:30N 49°57' W 125°07'3 5.2
2018-May-17 14:59N 49°55' W 125°04'3 5.1
2018-May-17 14:29N 49°54' W 125°01'2 4.9
2018-May-17 14:01N 49°52' W 124°58'2 4.9
2018-May-17 13:30N 49°50' W 124°56'2 4.7
2018-May-17 13:00N 49°49' W 124°53'2 4.6
2018-May-17 12:30N 49°47' W 124°51'2 4.7
2018-May-17 12:00N 49°45' W 124°48'2 4.8
2018-May-17 11:29N 49°44' W 124°45'2 4.7
2018-May-17 10:59N 49°43' W 124°42'2 4.7
2018-May-17 10:29N 49°42' W 124°39'4 5.1
2018-May-17 09:39N 49°39' W 124°33'11 0.4
2018-May-16 03:56N 49°33' W 124°19'2 5.3
2018-May-16 03:30N 49°34' W 124°22'3 5.0
2018-May-16 03:00N 49°35' W 124°25'3 5.1
2018-May-16 02:28N 49°37' W 124°28'3 5.2
2018-May-16 01:59N 49°39' W 124°32'3 5.5
2018-May-16 01:22N 49°40' W 124°36'2 5.9
2018-May-16 01:01N 49°41' W 124°39'3 6.0
2018-May-16 00:30N 49°43' W 124°43'3 5.7
2018-May-16 00:00N 49°45' W 124°47'3 5.6
2018-May-15 23:30N 49°46' W 124°50'3 5.9
2018-May-15 23:00N 49°48' W 124°54'3 5.8
2018-May-15 22:30N 49°50' W 124°57'3 5.7
2018-May-15 21:59N 49°52' W 125°00'3 5.5
2018-May-15 21:30N 49°54' W 125°03'3 5.7
2018-May-15 20:58N 49°56' W 125°07'3 6.1
2018-May-15 20:30N 49°58' W 125°10'5 9.5
2018-May-15 20:00N 50°02' W 125°14'4 8.2
2018-May-15 19:30N 50°05' W 125°17'2 3.3
2018-May-15 19:00N 50°07' W 125°19'2 4.7
2018-May-15 18:30N 50°08' W 125°21'3 5.0
2018-May-15 18:00N 50°11' W 125°22'1 1.7
2018-May-15 17:30N 50°12' W 125°22'1 1.3
2018-May-15 17:01N 50°13' W 125°22'1 1.9
2018-May-15 16:30N 50°13' W 125°22'1 1.7
2018-May-15 16:00N 50°14' W 125°23'1 1.6
2018-May-15 15:30N 50°15' W 125°23'1 1.7
2018-May-15 15:00N 50°16' W 125°23'1 1.5
2018-May-15 14:30N 50°16' W 125°24'1 1.4
2018-May-15 13:57N 50°17' W 125°25'1 1.5
2018-May-15 13:30N 50°18' W 125°25'1 1.6
2018-May-15 12:59N 50°18' W 125°25'1 2.3
2018-May-15 12:28N 50°20' W 125°25'29 4.7
2018-May-15 06:16N 50°28' W 126°09'1 4.3
2018-May-15 05:59N 50°28' W 126°11'8 4.7
2018-May-15 04:16N 50°30' W 126°23'1 4.2
2018-May-15 03:56N 50°30' W 126°25'2 4.3
2018-May-15 03:25N 50°30' W 126°29'3 4.9
2018-May-15 02:47N 50°30' W 126°34'2 4.8
2018-May-15 02:27N 50°31' W 126°36'20 5.3
2018-May-14 22:41N 50°43' W 127°00'3 5.9
2018-May-14 22:12N 50°45' W 127°04'1 6.0
2018-May-14 21:58N 50°45' W 127°06'3 6.3
2018-May-14 21:27N 50°47' W 127°11'3 6.3
2018-May-14 20:55N 50°49' W 127°15'3 6.6
2018-May-14 20:30N 50°51' W 127°18'3 6.5
2018-May-14 20:00N 50°53' W 127°22'4 7.0
2018-May-14 19:30N 50°55' W 127°26'3 6.6
2018-May-14 19:00N 50°58' W 127°30'3 6.0
2018-May-14 18:30N 50°59' W 127°33'3 5.9
2018-May-14 18:00N 51°01' W 127°37'3 5.8
2018-May-14 17:30N 51°03' W 127°40'2 4.9
2018-May-14 17:00N 51°05' W 127°43'3 5.4
2018-May-14 16:30N 51°07' W 127°47'17 5.1
2018-May-14 13:03N 51°24' W 127°52'0 5.8
2018-May-14 12:58N 51°24' W 127°52'3 6.1
2018-May-14 12:30N 51°27' W 127°51'3 5.8
2018-May-14 12:00N 51°30' W 127°51'3 5.8
2018-May-14 11:30N 51°33' W 127°52'3 5.8
2018-May-14 11:00N 51°36' W 127°53'3 5.7
2018-May-14 10:30N 51°38' W 127°54'3 5.9
2018-May-14 10:00N 51°41' W 127°56'3 5.7
2018-May-14 09:30N 51°44' W 127°56'3 5.7
2018-May-14 09:01N 51°47' W 127°56'3 5.7
2018-May-14 08:30N 51°50' W 127°56'3 5.4
2018-May-14 08:00N 51°52' W 127°56'3 5.6
2018-May-14 07:30N 51°55' W 127°53'3 5.6
2018-May-14 07:00N 51°56' W 127°49'2 4.8
2018-May-14 06:30N 51°57' W 127°46'3 5.3
2018-May-14 06:00N 51°58' W 127°42'3 5.4
2018-May-14 05:30N 52°01' W 127°41'3 5.6
2018-May-14 05:00N 52°03' W 127°40'3 6.3
2018-May-14 04:30N 52°06' W 127°38'3 5.8
2018-May-14 04:00N 52°08' W 127°35'3 5.6
2018-May-14 03:27N 52°10' W 127°31'  
Track history (hours):
 
Tides and Currents Weather Stations Pressure Air Temp Water Temp Dewpoint Dewpoint Depression Visibility Wind Speed Wind Dir Waves Ship Positions

Ocean Clipper

Last reported at 2018-May-21 14:08 UTC. Time now 2018-May-21 14:50 UTC.
Position N 51°23' W 127°52'.

Length 27 m; draft 4.6 m.

Type: Tow > 200 m length. MMSI: 316005594.

Date/timePositionNaut miles runAvg speedWind from/ knotsBaromVisibWave heightAir tempDewpointWater temp
2018-May-21 14:08N 51°23' W 127°52'1 5.6
2018-May-21 13:59N 51°23' W 127°52'3 5.9
2018-May-21 13:27N 51°27' W 127°52'2 5.6
2018-May-21 13:00N 51°29' W 127°52'3 5.1
2018-May-21 12:30N 51°32' W 127°53'2 5.1
2018-May-21 12:00N 51°34' W 127°53'3 5.2
2018-May-21 11:30N 51°37' W 127°54'2 4.8
2018-May-21 11:00N 51°39' W 127°55'3 5.1
2018-May-21 10:30N 51°41' W 127°55'3 5.7
2018-May-21 10:00N 51°44' W 127°55'3 5.9
2018-May-21 09:30N 51°47' W 127°56'3 5.7
2018-May-21 09:00N 51°50' W 127°57'3 5.9
2018-May-21 08:30N 51°53' W 127°57'3 6.2
2018-May-21 08:00N 51°56' W 127°56'3 6.3
2018-May-21 07:30N 51°59' W 127°56'3 6.3
2018-May-21 07:00N 52°02' W 127°55'3 6.3
2018-May-21 06:30N 52°05' W 127°54'3 6.5
2018-May-21 06:00N 52°09' W 127°53'3 6.3
2018-May-21 05:30N 52°11' W 127°51'3 6.2
2018-May-21 05:00N 52°14' W 127°48'3 6.1
2018-May-21 04:30N 52°16' W 127°43'3 6.4
2018-May-21 03:59N 52°17' W 127°38'10 0.2
2018-May-19 08:36N 52°14' W 127°22'3 6.1
2018-May-19 08:06N 52°13' W 127°26'1 6.2
2018-May-19 08:00N 52°12' W 127°27'3 6.1
2018-May-19 07:30N 52°11' W 127°31'3 5.5
2018-May-19 06:59N 52°08' W 127°35'3 5.6
2018-May-19 06:30N 52°07' W 127°38'1 1.8
2018-May-19 06:00N 52°07' W 127°39'0 0.9
2018-May-19 05:30N 52°07' W 127°38'2 3.2
2018-May-19 05:00N 52°05' W 127°39'2 4.5
2018-May-19 04:30N 52°03' W 127°40'3 5.2
2018-May-19 04:00N 52°00' W 127°41'3 5.3
2018-May-19 03:30N 51°58' W 127°42'2 4.5
2018-May-19 03:00N 51°57' W 127°46'2 4.3
2018-May-19 02:30N 51°56' W 127°49'3 6.5
2018-May-19 02:00N 51°54' W 127°53'3 6.2
2018-May-19 01:30N 51°52' W 127°55'3 6.4
2018-May-19 01:00N 51°48' W 127°55'4 6.8
2018-May-19 00:30N 51°45' W 127°55'3 6.3
2018-May-19 00:00N 51°42' W 127°55'3 6.0
2018-May-18 23:30N 51°39' W 127°54'3 6.4
2018-May-18 23:00N 51°36' W 127°53'3 6.9
2018-May-18 22:30N 51°32' W 127°52'4 7.0
2018-May-18 22:00N 51°29' W 127°51'4 7.1
2018-May-18 21:28N 51°25' W 127°51'3 7.0
2018-May-18 21:00N 51°22' W 127°53'4 6.8
2018-May-18 20:27N 51°18' W 127°53'3 6.6
2018-May-18 19:59N 51°15' W 127°52'3 6.5
2018-May-18 19:28N 51°12' W 127°51'4 6.2
2018-May-18 18:48N 51°08' W 127°48'2 6.7
2018-May-18 18:29N 51°07' W 127°46'4 7.5
2018-May-18 18:01N 51°04' W 127°41'4 7.6
2018-May-18 17:30N 51°02' W 127°37'4 8.2
2018-May-18 17:00N 50°59' W 127°32'4 8.4
2018-May-18 16:30N 50°56' W 127°27'4 8.4
2018-May-18 16:00N 50°54' W 127°22'4 8.0
2018-May-18 15:30N 50°52' W 127°16'4 7.9
2018-May-18 14:59N 50°49' W 127°11'4 8.0
2018-May-18 14:30N 50°47' W 127°06'4 7.8
2018-May-18 13:58N 50°45' W 127°01'4 7.8
2018-May-18 13:30N 50°43' W 126°56'6 7.1
2018-May-18 12:37N 50°39' W 126°48'3 7.0
2018-May-18 12:11N 50°37' W 126°45'1 7.2
2018-May-18 11:59N 50°36' W 126°43'3 5.5
2018-May-18 11:28N 50°33' W 126°41'4 7.2
2018-May-18 10:56N 50°31' W 126°36'3 7.2
2018-May-18 10:29N 50°30' W 126°31'4 7.2
2018-May-18 09:59N 50°30' W 126°25'35 7.7
2018-May-18 05:26N 50°21' W 125°32'4 8.5
2018-May-18 04:55N 50°20' W 125°26'4 8.6
2018-May-18 04:30N 50°16' W 125°24'4 8.1
2018-May-18 04:00N 50°12' W 125°22'4 8.4
2018-May-18 03:30N 50°08' W 125°21'3 6.2
2018-May-18 03:01N 50°06' W 125°19'0 0.2
2018-May-18 02:30N 50°06' W 125°19'0 0.0
2018-May-18 02:01N 50°06' W 125°19'0 0.0
2018-May-18 01:30N 50°06' W 125°19'0 0.0
2018-May-18 01:00N 50°06' W 125°19'0 0.0
2018-May-18 00:31N 50°06' W 125°19'0 0.0
2018-May-17 23:59N 50°06' W 125°19'0 0.0
2018-May-17 23:30N 50°06' W 125°19'0 0.0
2018-May-17 23:00N 50°06' W 125°19'0 0.0
2018-May-17 22:29N 50°06' W 125°19'0 0.0
2018-May-17 22:00N 50°06' W 125°19'0 0.0
2018-May-17 21:30N 50°06' W 125°19'0 0.0
2018-May-17 21:00N 50°06' W 125°19'0 0.0
2018-May-17 20:30N 50°06' W 125°19'0 0.0
2018-May-17 20:01N 50°06' W 125°19'0 0.0
2018-May-17 19:31N 50°06' W 125°19'0 0.0
2018-May-17 19:00N 50°06' W 125°19'0 0.0
2018-May-17 18:30N 50°06' W 125°19'0 0.7
2018-May-17 18:01N 50°06' W 125°19'1 1.2
2018-May-17 17:30N 50°05' W 125°18'1 2.5
2018-May-17 17:00N 50°05' W 125°16'4 8.8
2018-May-17 16:31N 50°01' W 125°13'3 6.0
2018-May-17 16:00N 49°58' W 125°11'3 5.0
2018-May-17 15:30N 49°57' W 125°07'3 5.2
2018-May-17 14:59N 49°55' W 125°04'3 5.1
2018-May-17 14:29N 49°54' W 125°01'2 4.9
2018-May-17 14:01N 49°52' W 124°58'2 4.9
2018-May-17 13:30N 49°50' W 124°56'2 4.7
2018-May-17 13:00N 49°49' W 124°53'2 4.6
2018-May-17 12:30N 49°47' W 124°51'2 4.7
2018-May-17 12:00N 49°45' W 124°48'2 4.8
2018-May-17 11:29N 49°44' W 124°45'2 4.7
2018-May-17 10:59N 49°43' W 124°42'2 4.7
2018-May-17 10:29N 49°42' W 124°39'4 5.1
2018-May-17 09:39N 49°39' W 124°33'11 0.4
2018-May-16 03:56N 49°33' W 124°19'2 5.3
2018-May-16 03:30N 49°34' W 124°22'3 5.0
2018-May-16 03:00N 49°35' W 124°25'3 5.1
2018-May-16 02:28N 49°37' W 124°28'3 5.2
2018-May-16 01:59N 49°39' W 124°32'3 5.5
2018-May-16 01:22N 49°40' W 124°36'2 5.9
2018-May-16 01:01N 49°41' W 124°39'3 6.0
2018-May-16 00:30N 49°43' W 124°43'3 5.7
2018-May-16 00:00N 49°45' W 124°47'3 5.6
2018-May-15 23:30N 49°46' W 124°50'3 5.9
2018-May-15 23:00N 49°48' W 124°54'3 5.8
2018-May-15 22:30N 49°50' W 124°57'3 5.7
2018-May-15 21:59N 49°52' W 125°00'3 5.5
2018-May-15 21:30N 49°54' W 125°03'3 5.7
2018-May-15 20:58N 49°56' W 125°07'3 6.1
2018-May-15 20:30N 49°58' W 125°10'5 9.5
2018-May-15 20:00N 50°02' W 125°14'4 8.2
2018-May-15 19:30N 50°05' W 125°17'2 3.3
2018-May-15 19:00N 50°07' W 125°19'2 4.7
2018-May-15 18:30N 50°08' W 125°21'3 5.0
2018-May-15 18:00N 50°11' W 125°22'1 1.7
2018-May-15 17:30N 50°12' W 125°22'1 1.3
2018-May-15 17:01N 50°13' W 125°22'1 1.9
2018-May-15 16:30N 50°13' W 125°22'1 1.7
2018-May-15 16:00N 50°14' W 125°23'1 1.6
2018-May-15 15:30N 50°15' W 125°23'1 1.7
2018-May-15 15:00N 50°16' W 125°23'1 1.5
2018-May-15 14:30N 50°16' W 125°24'1 1.4
2018-May-15 13:57N 50°17' W 125°25'1 1.5
2018-May-15 13:30N 50°18' W 125°25'1 1.6
2018-May-15 12:59N 50°18' W 125°25'1 2.3
2018-May-15 12:28N 50°20' W 125°25'29 4.7
2018-May-15 06:16N 50°28' W 126°09'1 4.3
2018-May-15 05:59N 50°28' W 126°11'8 4.7
2018-May-15 04:16N 50°30' W 126°23'1 4.2
2018-May-15 03:56N 50°30' W 126°25'2 4.3
2018-May-15 03:25N 50°30' W 126°29'3 4.9
2018-May-15 02:47N 50°30' W 126°34'2 4.8
2018-May-15 02:27N 50°31' W 126°36'20 5.3
2018-May-14 22:41N 50°43' W 127°00'3 5.9
2018-May-14 22:12N 50°45' W 127°04'1 6.0
2018-May-14 21:58N 50°45' W 127°06'3 6.3
2018-May-14 21:27N 50°47' W 127°11'3 6.3
2018-May-14 20:55N 50°49' W 127°15'3 6.6
2018-May-14 20:30N 50°51' W 127°18'3 6.5
2018-May-14 20:00N 50°53' W 127°22'4 7.0
2018-May-14 19:30N 50°55' W 127°26'3 6.6
2018-May-14 19:00N 50°58' W 127°30'3 6.0
2018-May-14 18:30N 50°59' W 127°33'3 5.9
2018-May-14 18:00N 51°01' W 127°37'3 5.8
2018-May-14 17:30N 51°03' W 127°40'2 4.9
2018-May-14 17:00N 51°05' W 127°43'3 5.4
2018-May-14 16:30N 51°07' W 127°47'17 5.1
2018-May-14 13:03N 51°24' W 127°52'0 5.8
2018-May-14 12:58N 51°24' W 127°52'3 6.1
2018-May-14 12:30N 51°27' W 127°51'3 5.8
2018-May-14 12:00N 51°30' W 127°51'3 5.8
2018-May-14 11:30N 51°33' W 127°52'3 5.8
2018-May-14 11:00N 51°36' W 127°53'3 5.7
2018-May-14 10:30N 51°38' W 127°54'3 5.9
2018-May-14 10:00N 51°41' W 127°56'3 5.7
2018-May-14 09:30N 51°44' W 127°56'3 5.7
2018-May-14 09:01N 51°47' W 127°56'3 5.7
2018-May-14 08:30N 51°50' W 127°56'3 5.4
2018-May-14 08:00N 51°52' W 127°56'3 5.6
2018-May-14 07:30N 51°55' W 127°53'3 5.6
2018-May-14 07:00N 51°56' W 127°49'2 4.8
2018-May-14 06:30N 51°57' W 127°46'3 5.3
2018-May-14 06:00N 51°58' W 127°42'3 5.4
2018-May-14 05:30N 52°01' W 127°41'3 5.6
2018-May-14 05:00N 52°03' W 127°40'3 6.3
2018-May-14 04:30N 52°06' W 127°38'3 5.8
2018-May-14 04:00N 52°08' W 127°35'3 5.6
2018-May-14 03:27N 52°10' W 127°31'  

Dump ship's entire track history